createdAt,value
2022-08-03T00:00:11.799Z,1.00
2022-08-03T00:01:11.796Z,1.00
2022-08-03T00:02:11.793Z,1.00
2022-08-03T00:03:11.809Z,1.00
2022-08-03T00:04:11.771Z,1.00
2022-08-03T00:05:11.754Z,1.00
2022-08-03T00:06:11.748Z,1.00
2022-08-03T00:07:11.774Z,1.00
2022-08-03T00:08:11.736Z,1.00
2022-08-03T00:09:11.738Z,1.00
2022-08-03T00:10:11.726Z,1.00
2022-08-03T00:11:11.716Z,1.00
2022-08-03T00:12:11.701Z,1.00
2022-08-03T00:13:11.719Z,1.00
2022-08-03T00:14:11.691Z,1.00
2022-08-03T00:15:16.491Z,1.00
2022-08-03T00:16:12.679Z,1.00
2022-08-03T00:17:11.674Z,1.00
2022-08-03T00:18:11.665Z,1.00
2022-08-03T00:19:11.678Z,1.00
2022-08-03T00:20:11.663Z,1.00
2022-08-03T00:21:11.646Z,1.00
2022-08-03T00:22:11.632Z,1.00
2022-08-03T00:23:11.630Z,1.00
2022-08-03T00:24:11.621Z,1.00
2022-08-03T00:25:11.632Z,1.00
2022-08-03T00:26:11.610Z,1.00
2022-08-03T00:27:11.612Z,1.00
2022-08-03T00:28:12.597Z,1.00
2022-08-03T00:29:11.607Z,1.00
2022-08-03T00:30:11.614Z,1.00
2022-08-03T00:31:13.445Z,0.00
2022-08-03T00:32:11.615Z,1.00
2022-08-03T00:33:11.556Z,1.00
2022-08-03T00:34:11.565Z,1.00
2022-08-03T00:35:18.275Z,1.00
2022-08-03T00:36:12.538Z,1.00
2022-08-03T00:37:11.534Z,1.00
2022-08-03T00:38:11.542Z,1.00
2022-08-03T00:39:11.515Z,1.00
2022-08-03T00:40:11.505Z,1.00
2022-08-03T00:41:11.494Z,1.00
2022-08-03T00:42:11.492Z,1.00
2022-08-03T00:43:11.488Z,1.00
2022-08-03T00:44:11.496Z,1.00
2022-08-03T00:45:11.473Z,1.00
2022-08-03T00:46:11.477Z,1.00
2022-08-03T00:47:11.459Z,1.00
2022-08-03T00:48:32.185Z,1.00
2022-08-03T00:49:12.509Z,1.00
2022-08-03T00:50:11.425Z,1.00
2022-08-03T00:51:11.422Z,1.00
2022-08-03T00:52:11.421Z,1.00
2022-08-03T00:53:11.445Z,1.00
2022-08-03T00:54:11.403Z,1.00
2022-08-03T00:55:11.394Z,1.00
2022-08-03T00:56:11.423Z,1.00
2022-08-03T00:57:11.391Z,1.00
2022-08-03T00:58:11.378Z,1.00
2022-08-03T00:59:11.390Z,1.00
2022-08-03T01:00:11.360Z,1.00
2022-08-03T01:01:11.439Z,1.00
2022-08-03T01:02:11.343Z,1.00
2022-08-03T01:03:11.347Z,1.00
2022-08-03T01:04:11.358Z,1.00
2022-08-03T01:05:11.327Z,1.00
2022-08-03T01:06:11.310Z,1.00
2022-08-03T01:07:11.328Z,1.00
2022-08-03T01:08:11.299Z,1.00
2022-08-03T01:09:11.297Z,1.00
2022-08-03T01:10:11.311Z,1.00
2022-08-03T01:11:11.289Z,1.00
2022-08-03T01:12:11.271Z,1.00
2022-08-03T01:14:00.961Z,1.00
2022-08-03T01:14:18.745Z,1.00
2022-08-03T01:15:12.276Z,1.00
2022-08-03T01:16:11.268Z,1.00
2022-08-03T01:17:11.262Z,1.00
2022-08-03T01:18:11.238Z,1.00
2022-08-03T01:19:11.229Z,1.00
2022-08-03T01:20:11.218Z,1.00
2022-08-03T01:21:11.226Z,1.00
2022-08-03T01:22:11.206Z,1.00
2022-08-03T01:23:11.196Z,1.00
2022-08-03T01:24:11.186Z,1.00
2022-08-03T01:25:11.185Z,1.00
2022-08-03T01:26:11.187Z,1.00
2022-08-03T01:27:11.193Z,1.00
2022-08-03T01:28:11.385Z,1.00
2022-08-03T01:29:11.154Z,1.00
2022-08-03T01:30:11.165Z,1.00
2022-08-03T01:31:11.161Z,1.00
2022-08-03T01:32:59.859Z,1.00
2022-08-03T01:33:12.121Z,1.00
2022-08-03T01:34:12.219Z,1.00
2022-08-03T01:35:11.110Z,1.00
2022-08-03T01:36:11.127Z,1.00
2022-08-03T01:37:11.098Z,1.00
2022-08-03T01:38:11.089Z,1.00
2022-08-03T01:39:11.084Z,1.00
2022-08-03T01:40:11.075Z,1.00
2022-08-03T01:41:11.096Z,1.00
2022-08-03T01:42:11.072Z,1.00
2022-08-03T01:43:11.049Z,1.00
2022-08-03T01:44:29.713Z,1.00
2022-08-03T01:45:12.050Z,1.00
2022-08-03T01:46:11.021Z,1.00
2022-08-03T01:47:11.042Z,1.00
2022-08-03T01:48:11.018Z,1.00
2022-08-03T01:49:11.055Z,1.00
2022-08-03T01:50:11.008Z,1.00
2022-08-03T01:51:10.993Z,1.00
2022-08-03T01:52:11.011Z,1.00
2022-08-03T01:53:10.985Z,1.00
2022-08-03T01:54:10.999Z,1.00
2022-08-03T01:55:10.976Z,1.00
2022-08-03T01:56:10.966Z,1.00
2022-08-03T01:57:10.983Z,1.00
2022-08-03T01:58:10.948Z,1.00
2022-08-03T01:59:10.963Z,1.00
2022-08-03T02:00:10.968Z,1.00
2022-08-03T02:01:10.995Z,1.00
2022-08-03T02:02:31.937Z,1.00
2022-08-03T02:03:11.923Z,1.00
2022-08-03T02:04:10.907Z,1.00
2022-08-03T02:05:11.381Z,1.00
2022-08-03T02:07:00.215Z,1.00
2022-08-03T02:07:11.893Z,1.00
2022-08-03T02:08:10.887Z,1.00
2022-08-03T02:09:10.886Z,1.00
2022-08-03T02:10:10.886Z,1.00
2022-08-03T02:11:10.867Z,1.00
2022-08-03T02:12:10.858Z,1.00
2022-08-03T02:13:10.845Z,1.00
2022-08-03T02:14:10.834Z,1.00
2022-08-03T02:15:10.852Z,1.00
2022-08-03T02:16:10.814Z,1.00
2022-08-03T02:17:10.819Z,1.00
2022-08-03T02:18:10.818Z,1.00
2022-08-03T02:19:10.801Z,1.00
2022-08-03T02:20:10.794Z,1.00
2022-08-03T02:21:11.151Z,1.00
2022-08-03T02:22:10.807Z,1.00
2022-08-03T02:23:10.783Z,1.00
2022-08-03T02:24:10.775Z,1.00
2022-08-03T02:25:10.768Z,1.00
2022-08-03T02:26:10.776Z,1.00
2022-08-03T02:27:10.775Z,1.00
2022-08-03T02:28:10.739Z,1.00
2022-08-03T02:29:10.733Z,1.00
2022-08-03T02:30:10.726Z,1.00
2022-08-03T02:31:10.742Z,1.00
2022-08-03T02:32:10.718Z,1.00
2022-08-03T02:33:10.713Z,1.00
2022-08-03T02:34:10.713Z,1.00
2022-08-03T02:35:10.690Z,1.00
2022-08-03T02:36:10.689Z,1.00
2022-08-03T02:37:10.707Z,1.00
2022-08-03T02:38:10.674Z,1.00
2022-08-03T02:39:10.690Z,1.00
2022-08-03T02:40:10.676Z,1.00
2022-08-03T02:41:10.680Z,1.00
2022-08-03T02:42:12.036Z,1.00
2022-08-03T02:43:10.634Z,1.00
2022-08-03T02:44:10.630Z,1.00
2022-08-03T02:45:10.704Z,1.00
2022-08-03T02:46:10.619Z,1.00
2022-08-03T02:47:10.638Z,1.00
2022-08-03T02:48:10.618Z,1.00
2022-08-03T02:49:40.729Z,1.00
2022-08-03T02:50:11.670Z,1.00
2022-08-03T02:51:10.580Z,1.00
2022-08-03T02:52:12.574Z,1.00
2022-08-03T02:53:10.582Z,1.00
2022-08-03T02:54:10.564Z,1.00
2022-08-03T02:55:10.550Z,1.00
2022-08-03T02:56:10.538Z,1.00
2022-08-03T02:57:10.529Z,1.00
2022-08-03T02:58:10.549Z,1.00
2022-08-03T02:59:10.543Z,1.00
2022-08-03T03:00:10.513Z,1.00
2022-08-03T03:01:10.583Z,1.00
2022-08-03T03:02:10.530Z,1.00
2022-08-03T03:03:10.510Z,1.00
2022-08-03T03:04:10.488Z,1.00
2022-08-03T03:05:55.137Z,1.00
2022-08-03T03:06:11.471Z,1.00
2022-08-03T03:07:10.471Z,1.00
2022-08-03T03:08:17.634Z,1.00
2022-08-03T03:09:10.457Z,2.00
2022-08-03T03:10:10.436Z,1.00
2022-08-03T03:11:10.472Z,1.00
2022-08-03T03:12:10.434Z,1.00
2022-08-03T03:13:10.420Z,1.00
2022-08-03T03:14:10.416Z,2.00
2022-08-03T03:15:10.411Z,2.00
2022-08-03T03:16:10.395Z,2.00
2022-08-03T03:17:10.413Z,2.00
2022-08-03T03:18:10.381Z,2.00
2022-08-03T03:19:10.383Z,3.00
2022-08-03T03:20:10.370Z,5.00
2022-08-03T03:21:10.366Z,5.00
2022-08-03T03:22:10.416Z,5.00
2022-08-03T03:23:10.353Z,4.00
2022-08-03T03:24:10.341Z,5.00
2022-08-03T03:25:10.345Z,6.00
2022-08-03T03:26:10.328Z,7.00
2022-08-03T03:27:10.329Z,9.00
2022-08-03T03:28:10.338Z,11.00
2022-08-03T03:29:10.303Z,12.00
2022-08-03T03:30:10.293Z,13.00
2022-08-03T03:31:10.297Z,15.00
2022-08-03T03:32:10.302Z,15.00
2022-08-03T03:33:10.283Z,18.00
2022-08-03T03:34:10.288Z,21.00
2022-08-03T03:35:10.258Z,23.00
2022-08-03T03:36:10.255Z,25.00
2022-08-03T03:37:10.252Z,27.00
2022-08-03T03:38:10.248Z,29.00
2022-08-03T03:39:15.150Z,34.00
2022-08-03T03:40:11.223Z,35.00
2022-08-03T03:41:10.226Z,40.00
2022-08-03T03:42:10.224Z,44.00
2022-08-03T03:43:10.209Z,47.00
2022-08-03T03:44:10.202Z,52.00
2022-08-03T03:45:10.211Z,55.00
2022-08-03T03:46:10.191Z,60.00
2022-08-03T03:47:10.177Z,67.00
2022-08-03T03:48:10.174Z,70.00
2022-08-03T03:49:10.246Z,78.00
2022-08-03T03:50:10.149Z,84.00
2022-08-03T03:51:10.142Z,91.00
2022-08-03T03:52:10.143Z,98.00
2022-08-03T03:53:10.132Z,106.00
2022-08-03T03:54:10.122Z,113.00
2022-08-03T03:55:10.126Z,121.00
2022-08-03T03:56:10.098Z,130.00
2022-08-03T03:57:10.095Z,140.00
2022-08-03T03:58:10.093Z,150.00
2022-08-03T03:59:10.100Z,157.00
2022-08-03T04:00:10.079Z,167.00
2022-08-03T04:01:10.124Z,176.00
2022-08-03T04:02:10.120Z,187.00
2022-08-03T04:03:10.057Z,197.00
2022-08-03T04:04:10.058Z,208.00
2022-08-03T04:05:10.038Z,218.00
2022-08-03T04:06:10.037Z,231.00
2022-08-03T04:07:10.031Z,241.00
2022-08-03T04:08:10.037Z,250.00
2022-08-03T04:09:10.005Z,262.00
2022-08-03T04:10:14.703Z,273.00
2022-08-03T04:11:09.984Z,286.00
2022-08-03T04:12:10.068Z,299.00
2022-08-03T04:13:09.964Z,311.00
2022-08-03T04:14:09.995Z,324.00
2022-08-03T04:15:09.953Z,335.00
2022-08-03T04:16:09.948Z,348.00
2022-08-03T04:17:09.958Z,360.00
2022-08-03T04:18:09.941Z,375.00
2022-08-03T04:19:09.931Z,388.00
2022-08-03T04:20:09.919Z,402.00
2022-08-03T04:21:09.908Z,415.00
2022-08-03T04:22:09.972Z,427.00
2022-08-03T04:23:15.725Z,443.00
2022-08-03T04:24:10.879Z,457.00
2022-08-03T04:25:09.886Z,472.00
2022-08-03T04:26:09.902Z,487.00
2022-08-03T04:27:09.861Z,502.00
2022-08-03T04:28:29.777Z,524.00
2022-08-03T04:29:10.847Z,541.00
2022-08-03T04:30:09.835Z,552.00
2022-08-03T04:31:09.842Z,565.00
2022-08-03T04:32:09.907Z,580.00
2022-08-03T04:33:09.818Z,596.00
2022-08-03T04:34:09.834Z,617.00
2022-08-03T04:35:09.829Z,658.00
2022-08-03T04:36:09.792Z,859.00
2022-08-03T04:37:09.789Z,1584.00
2022-08-03T04:38:09.779Z,2022.00
2022-08-03T04:39:09.771Z,2088.00
2022-08-03T04:40:09.756Z,2956.00
2022-08-03T04:41:09.775Z,4133.00
2022-08-03T04:42:09.751Z,5163.00
2022-08-03T04:43:09.750Z,5700.00
2022-08-03T04:44:09.735Z,5930.00
2022-08-03T04:45:09.727Z,6148.00
2022-08-03T04:46:09.715Z,6341.00
2022-08-03T04:47:09.739Z,6466.00
2022-08-03T04:48:09.703Z,6616.00
2022-08-03T04:49:09.723Z,6755.00
2022-08-03T04:50:12.917Z,6884.00
2022-08-03T04:51:09.683Z,7020.00
2022-08-03T04:52:09.739Z,7146.00
2022-08-03T04:53:09.683Z,7269.00
2022-08-03T04:54:09.661Z,7377.00
2022-08-03T04:55:09.654Z,7507.00
2022-08-03T04:56:09.644Z,7628.00
2022-08-03T04:57:09.756Z,7938.00
2022-08-03T04:58:09.627Z,8992.00
2022-08-03T04:59:09.645Z,12274.00
2022-08-03T05:00:09.622Z,15869.00
2022-08-03T05:01:09.607Z,17047.00
2022-08-03T05:02:09.779Z,15784.00
2022-08-03T05:03:20.347Z,15640.00
2022-08-03T05:04:10.609Z,15340.00
2022-08-03T05:05:09.584Z,16989.00
2022-08-03T05:06:11.400Z,17273.00
2022-08-03T05:07:12.303Z,15677.00
2022-08-03T05:08:11.185Z,16392.00
2022-08-03T05:09:09.584Z,15603.00
2022-08-03T05:10:15.911Z,15084.00
2022-08-03T05:11:10.547Z,15415.00
2022-08-03T05:12:09.593Z,15977.00
2022-08-03T05:13:09.533Z,17079.00
2022-08-03T05:14:09.521Z,16128.00
2022-08-03T05:15:09.534Z,16337.00
2022-08-03T05:16:09.511Z,18715.00
2022-08-03T05:17:09.509Z,19076.00
2022-08-03T05:18:13.666Z,18841.00
2022-08-03T05:19:09.505Z,17028.00
2022-08-03T05:20:09.487Z,17203.00
2022-08-03T05:21:09.493Z,18485.00
2022-08-03T05:22:09.540Z,17665.00
2022-08-03T05:23:09.466Z,16435.00
2022-08-03T05:24:09.452Z,16916.00
2022-08-03T05:25:09.458Z,18649.00
2022-08-03T05:26:10.501Z,20235.00
2022-08-03T05:27:09.454Z,18680.00
2022-08-03T05:28:09.431Z,17711.00
2022-08-03T05:29:09.429Z,17672.00
2022-08-03T05:30:30.885Z,20109.00
2022-08-03T05:31:10.433Z,19163.00
2022-08-03T05:32:09.447Z,21139.00
2022-08-03T05:33:09.401Z,20826.00
2022-08-03T05:34:09.395Z,16467.00
2022-08-03T05:36:00.849Z,20215.00
2022-08-03T05:36:10.380Z,21077.00
2022-08-03T05:37:09.396Z,20705.00
2022-08-03T05:38:09.370Z,20437.00
2022-08-03T05:39:09.363Z,19455.00
2022-08-03T05:40:09.346Z,21166.00
2022-08-03T05:41:22.442Z,19643.00
2022-08-03T05:42:09.393Z,18847.00
2022-08-03T05:43:09.348Z,21452.00
2022-08-03T05:44:09.356Z,24268.00
2022-08-03T05:45:09.320Z,24098.00
2022-08-03T05:46:13.049Z,22721.00
2022-08-03T05:47:09.305Z,22285.00
2022-08-03T05:48:09.300Z,22828.00
2022-08-03T05:49:09.363Z,23516.00
2022-08-03T05:50:09.283Z,21787.00
2022-08-03T05:51:09.283Z,22008.00
2022-08-03T05:52:12.947Z,21571.00
2022-08-03T05:53:10.265Z,21395.00
2022-08-03T05:54:09.257Z,23135.00
2022-08-03T05:55:09.253Z,27656.00
2022-08-03T05:56:13.601Z,28420.00
2022-08-03T05:57:10.265Z,22902.00
2022-08-03T05:58:09.240Z,25424.00
2022-08-03T05:59:35.898Z,25069.00
2022-08-03T06:00:10.222Z,23124.00
2022-08-03T06:01:09.238Z,24558.00
2022-08-03T06:02:09.257Z,26179.00
2022-08-03T06:03:09.204Z,25114.00
2022-08-03T06:04:09.189Z,22650.00
2022-08-03T06:05:09.185Z,25583.00
2022-08-03T06:06:09.195Z,22950.00
2022-08-03T06:07:09.192Z,22830.00
2022-08-03T06:08:09.184Z,24525.00
2022-08-03T06:09:09.154Z,26393.00
2022-08-03T06:10:35.257Z,27975.00
2022-08-03T06:11:10.143Z,23657.00
2022-08-03T06:12:12.397Z,22359.00
2022-08-03T06:13:10.190Z,62588.00
2022-08-03T06:14:09.119Z,62554.00
2022-08-03T06:15:11.318Z,21023.00
2022-08-03T06:16:09.115Z,22814.00
2022-08-03T06:17:09.109Z,27680.00
2022-08-03T06:18:09.089Z,26599.00
2022-08-03T06:19:09.103Z,24048.00
2022-08-03T06:20:09.077Z,24852.00
2022-08-03T06:21:14.316Z,19682.00
2022-08-03T06:22:09.064Z,15242.00
2022-08-03T06:23:15.937Z,17608.00
2022-08-03T06:24:10.082Z,22911.00
2022-08-03T06:25:12.671Z,24355.00
2022-08-03T06:26:09.038Z,21718.00
2022-08-03T06:27:09.039Z,18749.00
2022-08-03T06:28:15.024Z,17312.00
2022-08-03T06:29:10.054Z,13498.00
2022-08-03T06:30:09.044Z,9545.00
2022-08-03T06:31:09.005Z,5626.00
2022-08-03T06:32:09.005Z,5272.00
2022-08-03T06:33:09.010Z,5141.00
2022-08-03T06:34:33.790Z,5048.00
2022-08-03T06:35:10.016Z,4976.00
2022-08-03T06:36:08.974Z,4933.00
2022-08-03T06:37:08.978Z,4888.00
2022-08-03T06:38:08.964Z,4855.00
2022-08-03T06:39:08.962Z,4828.00
2022-08-03T06:40:08.948Z,4812.00
2022-08-03T06:41:08.972Z,4787.00
2022-08-03T06:42:09.856Z,4792.00
2022-08-03T06:43:12.553Z,4771.00
2022-08-03T06:44:08.929Z,4758.00
2022-08-03T06:45:08.917Z,4742.00
2022-08-03T06:46:08.920Z,4732.00
2022-08-03T06:47:08.926Z,4757.00
2022-08-03T06:48:08.910Z,3309.00
2022-08-03T06:49:08.956Z,3195.00
2022-08-03T06:50:16.539Z,4081.00
2022-08-03T06:51:09.890Z,3784.00
2022-08-03T06:52:08.876Z,3974.00
2022-08-03T06:53:08.863Z,4091.00
2022-08-03T06:54:08.880Z,4464.00
2022-08-03T06:55:08.867Z,4251.00
2022-08-03T06:56:08.852Z,4226.00
2022-08-03T06:57:08.847Z,4044.00
2022-08-03T06:58:08.837Z,4067.00
2022-08-03T06:59:08.826Z,4234.00
2022-08-03T07:00:12.307Z,4133.00
2022-08-03T07:01:08.855Z,4330.00
2022-08-03T07:02:08.819Z,4576.00
2022-08-03T07:03:08.820Z,4557.00
2022-08-03T07:04:08.808Z,4533.00
2022-08-03T07:05:08.810Z,4512.00
2022-08-03T07:06:08.778Z,4488.00
2022-08-03T07:07:08.790Z,4430.00
2022-08-03T07:08:08.781Z,4442.00
2022-08-03T07:09:08.767Z,4421.00
2022-08-03T07:10:08.778Z,4407.00
2022-08-03T07:11:08.762Z,4389.00
2022-08-03T07:12:08.753Z,4380.00
2022-08-03T07:13:08.752Z,4357.00
2022-08-03T07:14:08.752Z,4354.00
2022-08-03T07:15:08.774Z,4351.00
2022-08-03T07:16:13.905Z,3964.00
2022-08-03T07:17:11.689Z,4336.00
2022-08-03T07:18:08.713Z,4308.00
2022-08-03T07:19:08.708Z,4260.00
2022-08-03T07:20:08.710Z,4157.00
2022-08-03T07:21:08.773Z,4309.00
2022-08-03T07:22:08.683Z,4303.00
2022-08-03T07:23:08.692Z,4297.00
2022-08-03T07:24:08.678Z,4295.00
2022-08-03T07:25:08.656Z,4286.00
2022-08-03T07:26:08.658Z,4284.00
2022-08-03T07:27:08.675Z,4278.00
2022-08-03T07:28:08.644Z,4268.00
2022-08-03T07:29:14.875Z,4250.00
2022-08-03T07:30:08.627Z,4215.00
2022-08-03T07:31:08.617Z,4229.00
2022-08-03T07:32:08.631Z,4237.00
2022-08-03T07:33:08.625Z,4241.00
2022-08-03T07:34:08.599Z,4230.00
2022-08-03T07:35:08.768Z,4223.00
2022-08-03T07:36:08.574Z,4217.00
2022-08-03T07:37:08.622Z,4203.00
2022-08-03T07:38:08.574Z,4195.00
2022-08-03T07:39:17.566Z,4184.00
2022-08-03T07:40:09.556Z,4186.00
2022-08-03T07:41:08.550Z,4197.00
2022-08-03T07:42:08.580Z,3920.00
2022-08-03T07:43:08.563Z,4069.00
2022-08-03T07:44:08.536Z,4061.00
2022-08-03T07:45:08.519Z,4083.00
2022-08-03T07:46:08.533Z,4110.00
2022-08-03T07:47:09.147Z,4114.00
2022-08-03T07:48:12.104Z,4129.00
2022-08-03T07:49:08.563Z,4128.00
2022-08-03T07:50:08.878Z,4122.00
2022-08-03T07:51:08.499Z,4115.00
2022-08-03T07:52:08.468Z,4115.00
2022-08-03T07:53:08.467Z,4107.00
2022-08-03T07:54:08.478Z,4082.00
2022-08-03T07:55:08.458Z,4098.00
2022-08-03T07:56:11.219Z,4091.00
2022-08-03T07:57:08.468Z,4071.00
2022-08-03T07:58:08.444Z,4075.00
2022-08-03T07:59:08.454Z,4067.00
2022-08-03T08:00:08.425Z,4062.00
2022-08-03T08:01:08.446Z,4054.00
2022-08-03T08:02:08.436Z,4045.00
2022-08-03T08:03:08.411Z,4036.00
2022-08-03T08:04:08.401Z,4038.00
2022-08-03T08:05:08.421Z,4025.00
2022-08-03T08:06:08.390Z,4023.00
2022-08-03T08:07:08.381Z,4008.00
2022-08-03T08:08:08.382Z,4005.00
2022-08-03T08:09:08.370Z,3995.00
2022-08-03T08:10:08.387Z,3989.00
2022-08-03T08:11:08.360Z,3976.00
2022-08-03T08:12:14.906Z,3974.00
2022-08-03T08:13:09.338Z,3945.00
2022-08-03T08:14:08.335Z,3966.00
2022-08-03T08:15:08.326Z,3958.00
2022-08-03T08:16:08.349Z,3951.00
2022-08-03T08:17:08.345Z,3947.00
2022-08-03T08:18:08.301Z,3942.00
2022-08-03T08:19:08.314Z,3928.00
2022-08-03T08:20:08.285Z,3923.00
2022-08-03T08:21:08.709Z,3918.00
2022-08-03T08:22:08.274Z,3910.00
2022-08-03T08:23:19.989Z,3911.00
2022-08-03T08:24:11.441Z,3905.00
2022-08-03T08:25:09.250Z,3903.00
2022-08-03T08:26:08.237Z,3921.00
2022-08-03T08:27:08.247Z,3913.00
2022-08-03T08:28:30.890Z,3911.00
2022-08-03T08:29:09.246Z,3901.00
2022-08-03T08:30:11.548Z,3898.00
2022-08-03T08:31:08.244Z,3893.00
2022-08-03T08:32:08.237Z,3875.00
2022-08-03T08:33:08.726Z,3868.00
2022-08-03T08:34:09.248Z,3861.00
2022-08-03T08:35:08.203Z,3851.00
2022-08-03T08:36:11.988Z,3853.00
2022-08-03T08:37:09.186Z,3841.00
2022-08-03T08:38:08.170Z,3841.00
2022-08-03T08:39:08.167Z,3835.00
2022-08-03T08:40:08.158Z,3829.00
2022-08-03T08:41:08.137Z,3829.00
2022-08-03T08:42:08.165Z,3826.00
2022-08-03T08:43:08.143Z,3819.00
2022-08-03T08:44:08.140Z,3817.00
2022-08-03T08:45:08.117Z,3817.00
2022-08-03T08:46:08.129Z,3823.00
2022-08-03T08:47:08.107Z,3759.00
2022-08-03T08:48:08.550Z,3809.00
2022-08-03T08:49:08.132Z,3798.00
2022-08-03T08:50:14.850Z,3801.00
2022-08-03T08:51:09.077Z,3792.00
2022-08-03T08:52:25.356Z,3789.00
2022-08-03T08:53:09.811Z,3775.00
2022-08-03T08:54:09.071Z,3759.00
2022-08-03T08:55:08.049Z,3750.00
2022-08-03T08:56:08.075Z,3704.00
2022-08-03T08:57:21.258Z,3703.00
2022-08-03T08:58:09.028Z,3652.00
2022-08-03T08:59:08.029Z,3563.00
2022-08-03T09:00:08.022Z,3649.00
2022-08-03T09:01:08.087Z,3664.00
2022-08-03T09:02:08.007Z,3655.00
2022-08-03T09:03:08.003Z,3642.00
2022-08-03T09:04:08.000Z,3635.00
2022-08-03T09:05:08.010Z,3632.00
2022-08-03T09:06:07.999Z,3620.00
2022-08-03T09:07:19.661Z,3611.00
2022-08-03T09:08:08.954Z,3603.00
2022-08-03T09:09:07.996Z,3592.00
2022-08-03T09:10:12.712Z,3510.00
2022-08-03T09:11:08.948Z,3537.00
2022-08-03T09:12:35.290Z,3533.00
2022-08-03T09:13:08.936Z,3530.00
2022-08-03T09:14:07.935Z,3522.00
2022-08-03T09:15:17.033Z,3517.00
2022-08-03T09:16:08.916Z,3500.00
2022-08-03T09:17:07.901Z,3496.00
2022-08-03T09:18:07.895Z,3481.00
2022-08-03T09:19:07.892Z,3475.00
2022-08-03T09:20:07.889Z,3457.00
2022-08-03T09:21:29.652Z,3450.00
2022-08-03T09:22:08.907Z,3441.00
2022-08-03T09:23:24.939Z,3430.00
2022-08-03T09:24:16.519Z,3421.00
2022-08-03T09:25:23.780Z,3414.00
2022-08-03T09:26:09.155Z,3399.00
2022-08-03T09:27:07.853Z,3397.00
2022-08-03T09:28:07.842Z,3392.00
2022-08-03T09:29:13.153Z,3378.00
2022-08-03T09:30:19.000Z,3375.00
2022-08-03T09:31:07.822Z,3371.00
2022-08-03T09:32:07.844Z,3363.00
2022-08-03T09:33:08.373Z,3356.00
2022-08-03T09:34:07.793Z,3350.00
2022-08-03T09:35:09.481Z,3340.00
2022-08-03T09:36:07.776Z,3334.00
2022-08-03T09:37:07.775Z,3332.00
2022-08-03T09:38:12.637Z,3322.00
2022-08-03T09:39:08.763Z,3321.00
2022-08-03T09:40:08.384Z,3314.00
2022-08-03T09:41:07.765Z,3310.00
2022-08-03T09:42:07.743Z,3310.00
2022-08-03T09:43:07.745Z,3305.00
2022-08-03T09:44:07.724Z,3302.00
2022-08-03T09:45:07.754Z,3295.00
2022-08-03T09:46:07.791Z,3290.00
2022-08-03T09:47:07.720Z,3282.00
2022-08-03T09:48:07.709Z,3274.00
2022-08-03T09:49:07.763Z,3262.00
2022-08-03T09:50:07.690Z,3259.00
2022-08-03T09:51:14.207Z,3252.00
2022-08-03T09:52:31.765Z,3243.00
2022-08-03T09:53:08.681Z,3240.00
2022-08-03T09:54:13.534Z,3237.00
2022-08-03T09:55:23.394Z,3229.00
2022-08-03T09:56:36.006Z,3223.00
2022-08-03T09:57:08.662Z,3216.00
2022-08-03T09:58:07.642Z,3214.00
2022-08-03T09:59:07.667Z,3211.00
2022-08-03T10:00:08.468Z,3204.00
2022-08-03T10:01:07.687Z,3203.00
2022-08-03T10:02:08.636Z,3199.00
2022-08-03T10:03:07.617Z,3195.00
2022-08-03T10:04:07.598Z,3191.00
2022-08-03T10:05:07.607Z,3181.00
2022-08-03T10:06:07.598Z,3170.00
2022-08-03T10:07:07.596Z,3164.00
2022-08-03T10:08:07.613Z,3154.00
2022-08-03T10:09:07.565Z,3156.00
2022-08-03T10:10:29.925Z,3144.00
2022-08-03T10:11:07.555Z,3135.00
2022-08-03T10:12:07.544Z,3132.00
2022-08-03T10:13:07.545Z,3121.00
2022-08-03T10:14:07.551Z,3114.00
2022-08-03T10:15:07.537Z,3111.00
2022-08-03T10:16:21.971Z,3103.00
2022-08-03T10:17:08.520Z,3091.00
2022-08-03T10:18:07.503Z,3078.00
2022-08-03T10:19:07.528Z,3082.00
2022-08-03T10:20:07.490Z,3075.00
2022-08-03T10:21:07.520Z,3072.00
2022-08-03T10:22:07.486Z,3061.00
2022-08-03T10:23:07.472Z,3057.00
2022-08-03T10:24:07.456Z,3046.00
2022-08-03T10:25:07.497Z,3051.00
2022-08-03T10:26:07.447Z,3045.00
2022-08-03T10:27:07.486Z,3036.00
2022-08-03T10:28:07.435Z,3031.00
2022-08-03T10:29:07.441Z,3024.00
2022-08-03T10:30:07.432Z,3011.00
2022-08-03T10:31:07.457Z,3000.00
2022-08-03T10:32:07.416Z,2997.00
2022-08-03T10:33:15.308Z,2975.00
2022-08-03T10:34:08.431Z,2965.00
2022-08-03T10:35:19.114Z,2959.00
2022-08-03T10:36:08.433Z,2951.00
2022-08-03T10:37:07.405Z,2949.00
2022-08-03T10:38:07.402Z,2945.00
2022-08-03T10:39:16.110Z,2938.00
2022-08-03T10:40:07.368Z,2928.00
2022-08-03T10:41:07.351Z,2926.00
2022-08-03T10:42:13.506Z,2907.00
2022-08-03T10:43:07.369Z,2904.00
2022-08-03T10:44:07.332Z,2902.00
2022-08-03T10:45:07.326Z,2895.00
2022-08-03T10:46:07.322Z,2887.00
2022-08-03T10:47:07.333Z,2884.00
2022-08-03T10:48:07.307Z,2835.00
2022-08-03T10:49:07.390Z,2765.00
2022-08-03T10:50:07.287Z,2856.00
2022-08-03T10:51:07.283Z,2848.00
2022-08-03T10:52:13.382Z,2841.00
2022-08-03T10:53:07.272Z,2831.00
2022-08-03T10:54:07.274Z,2824.00
2022-08-03T10:55:07.824Z,2816.00
2022-08-03T10:56:07.243Z,2810.00
2022-08-03T10:57:14.490Z,2807.00
2022-08-03T10:58:11.258Z,2797.00
2022-08-03T10:59:08.768Z,2789.00
2022-08-03T11:00:07.447Z,2754.00
2022-08-03T11:01:07.269Z,2744.00
2022-08-03T11:02:07.235Z,2765.00
2022-08-03T11:03:07.270Z,2760.00
2022-08-03T11:04:11.046Z,2757.00
2022-08-03T11:05:07.197Z,2624.00
2022-08-03T11:06:07.195Z,2731.00
2022-08-03T11:07:07.190Z,2719.00
2022-08-03T11:08:07.182Z,2735.00
2022-08-03T11:09:07.185Z,2732.00
2022-08-03T11:10:10.497Z,2727.00
2022-08-03T11:11:07.193Z,2726.00
2022-08-03T11:12:07.149Z,2726.00
2022-08-03T11:13:07.177Z,2718.00
2022-08-03T11:14:07.139Z,2718.00
2022-08-03T11:15:07.284Z,2712.00
2022-08-03T11:16:10.915Z,2699.00
2022-08-03T11:17:07.131Z,2682.00
2022-08-03T11:18:11.536Z,2672.00
2022-08-03T11:19:07.129Z,2686.00
2022-08-03T11:20:07.097Z,2691.00
2022-08-03T11:21:07.101Z,2549.00
2022-08-03T11:22:07.083Z,2599.00
2022-08-03T11:23:07.081Z,2630.00
2022-08-03T11:24:07.249Z,2673.00
2022-08-03T11:25:07.093Z,2681.00
2022-08-03T11:26:07.086Z,2645.00
2022-08-03T11:27:07.051Z,2679.00
2022-08-03T11:28:07.069Z,2677.00
2022-08-03T11:29:07.037Z,2684.00
2022-08-03T11:30:07.020Z,2684.00
2022-08-03T11:31:07.019Z,2674.00
2022-08-03T11:32:07.042Z,2681.00
2022-08-03T11:33:07.014Z,2674.00
2022-08-03T11:34:07.006Z,2684.00
2022-08-03T11:35:07.013Z,2696.00
2022-08-03T11:36:06.989Z,2688.00
2022-08-03T11:37:06.988Z,2742.00
2022-08-03T11:38:06.986Z,2779.00
2022-08-03T11:39:06.969Z,2862.00
2022-08-03T11:40:06.962Z,2915.00
2022-08-03T11:41:06.960Z,2773.00
2022-08-03T11:42:06.977Z,2600.00
2022-08-03T11:43:06.948Z,2539.00
2022-08-03T11:44:06.948Z,2090.00
2022-08-03T11:45:06.941Z,1915.00
2022-08-03T11:46:06.931Z,2097.00
2022-08-03T11:47:06.914Z,1862.00
2022-08-03T11:48:06.934Z,1759.00
2022-08-03T11:49:10.287Z,1928.00
2022-08-03T11:50:06.893Z,1972.00
2022-08-03T11:51:06.891Z,2015.00
2022-08-03T11:52:06.884Z,1933.00
2022-08-03T11:53:06.896Z,1923.00
2022-08-03T11:54:06.865Z,1860.00
2022-08-03T11:55:06.875Z,1914.00
2022-08-03T11:56:12.868Z,2025.00
2022-08-03T11:57:07.861Z,2232.00
2022-08-03T11:59:00.775Z,2176.00
2022-08-03T11:59:20.423Z,2413.00
2022-08-03T12:00:07.918Z,2303.00
2022-08-03T12:01:06.835Z,2648.00
2022-08-03T12:02:06.808Z,2641.00
2022-08-03T12:03:06.891Z,2681.00
2022-08-03T12:04:06.800Z,2740.00
2022-08-03T12:05:06.817Z,2310.00
2022-08-03T12:06:06.785Z,2851.00
2022-08-03T12:07:06.789Z,2922.00
2022-08-03T12:08:07.196Z,2865.00
2022-08-03T12:09:06.769Z,3172.00
2022-08-03T12:10:06.754Z,3165.00
2022-08-03T12:11:06.835Z,3078.00
2022-08-03T12:12:06.749Z,2950.00
2022-08-03T12:14:45.531Z,2930.00
2022-08-03T12:14:50.112Z,2921.00
2022-08-03T12:15:07.729Z,2809.00
2022-08-03T12:16:06.731Z,2922.00
2022-08-03T12:17:06.719Z,3052.00
2022-08-03T12:18:06.705Z,3070.00
2022-08-03T12:19:06.764Z,3087.00
2022-08-03T12:20:06.726Z,3062.00
2022-08-03T12:21:06.688Z,2966.00
2022-08-03T12:22:06.671Z,2932.00
2022-08-03T12:23:06.687Z,2952.00
2022-08-03T12:24:06.657Z,2925.00